Terminal Aerodrome Forecast
Issued by NWS

Current Version | Previous Version | Text Only | Print | Product List | Glossary On
Versions: 1 2 3 4 5 6 7 8 9 10 11 12 13 14 15 16 17 18 19
000
FTUS43 KGRB 231700
TAFCWA
TAF
KCWA 231732Z 2318/2418 23006KT P6SM SCT035
     FM240000 18004KT P6SM BKN250
     FM240900 15004KT 5SM BR OVC200
      TEMPO 2410/2412 2SM BR
     FM241300 15007KT P6SM SCT030 OVC100=

USA.gov is the U.S. government's official web portal to all federal, state and local government web resources and services.